createdAt,value
2022-10-28T00:01:41.450Z,99670.16
2022-10-28T00:04:08.089Z,99646.41
2022-10-28T00:06:36.653Z,99668.72
2022-10-28T00:09:05.711Z,99658.41
2022-10-28T00:11:35.599Z,99665.31
2022-10-28T00:14:05.073Z,99672.88
2022-10-28T00:16:34.150Z,99656.09
2022-10-28T00:19:02.351Z,99659.72
2022-10-28T00:21:31.573Z,99643.63
2022-10-28T00:23:58.293Z,99664.19
2022-10-28T00:26:27.709Z,99667.56
2022-10-28T00:28:57.061Z,99666.72
2022-10-28T00:31:25.516Z,99655.44
2022-10-28T00:33:52.726Z,99654.50
2022-10-28T00:36:22.141Z,99651.84
2022-10-28T00:38:50.901Z,99653.66
2022-10-28T00:41:23.535Z,99646.53
2022-10-28T00:43:54.056Z,99651.00
2022-10-28T00:46:39.521Z,99650.16
2022-10-28T00:49:21.908Z,99650.16
2022-10-28T00:51:52.004Z,99638.75
2022-10-28T00:54:19.906Z,99636.97
2022-10-28T00:56:49.837Z,99640.56
2022-10-28T00:59:29.736Z,99627.72
2022-10-28T01:01:56.486Z,99626.53
2022-10-28T01:04:23.448Z,99620.91
2022-10-28T01:06:51.732Z,99625.81
2022-10-28T01:09:18.346Z,99619.31
2022-10-28T01:12:40.789Z,99624.94
2022-10-28T01:15:09.943Z,99617.09
2022-10-28T01:17:42.653Z,99623.34
2022-10-28T01:20:27.616Z,99622.50
2022-10-28T01:23:13.064Z,99613.69
2022-10-28T01:25:42.556Z,99615.50
2022-10-28T01:28:46.235Z,99609.34
2022-10-28T01:34:22.982Z,99601.03
2022-10-28T01:37:16.796Z,99601.16
2022-10-28T01:39:52.424Z,99605.75
2022-10-28T01:42:28.055Z,99601.69
2022-10-28T01:44:55.504Z,99601.84
2022-10-28T01:47:51.489Z,99593.28
2022-10-28T01:50:24.056Z,99596.94
2022-10-28T01:52:55.986Z,99593.56
2022-10-28T01:55:28.399Z,99594.63
2022-10-28T01:57:56.820Z,99593.84
2022-10-28T02:00:23.627Z,99589.69
2022-10-28T02:02:51.360Z,99591.47
2022-10-28T02:05:39.672Z,99581.09
2022-10-28T02:08:18.377Z,99576.91
2022-10-28T02:11:00.237Z,99572.66
2022-10-28T02:13:54.296Z,99570.09
2022-10-28T02:16:26.708Z,99570.31
2022-10-28T02:19:17.541Z,99564.25
2022-10-28T02:21:44.554Z,99560.00
2022-10-28T02:24:35.896Z,99558.19
2022-10-28T02:27:17.996Z,99548.63
2022-10-28T02:29:53.164Z,99549.69
2022-10-28T02:32:26.530Z,99561.13
2022-10-28T02:34:57.539Z,99550.63
2022-10-28T02:37:30.402Z,99534.16
2022-10-28T02:40:00.004Z,99551.56
2022-10-28T02:42:39.992Z,99560.47
2022-10-28T02:45:13.492Z,99548.19
2022-10-28T02:47:44.687Z,99543.81
2022-10-28T02:50:18.100Z,99553.56
2022-10-28T02:52:49.924Z,99552.72
2022-10-28T02:55:18.892Z,99559.84
2022-10-28T02:57:49.165Z,99555.47
2022-10-28T03:00:19.787Z,99528.84
2022-10-28T03:02:46.923Z,99536.16
2022-10-28T03:05:14.254Z,99544.94
2022-10-28T03:09:00.826Z,99537.97
2022-10-28T03:11:27.486Z,99544.22
2022-10-28T03:13:54.003Z,99547.81
2022-10-28T03:16:20.861Z,99538.16
2022-10-28T03:18:47.420Z,99533.72
2022-10-28T03:21:13.961Z,99533.88
2022-10-28T03:23:40.513Z,99540.78
2022-10-28T03:26:07.059Z,99539.97
2022-10-28T03:28:33.567Z,99541.75
2022-10-28T03:31:00.128Z,99533.88
2022-10-28T03:33:26.683Z,99532.06
2022-10-28T03:35:53.220Z,99543.66
2022-10-28T03:38:19.737Z,99553.28
2022-10-28T03:40:50.313Z,99537.47
2022-10-28T03:43:17.616Z,99537.47
2022-10-28T03:45:44.752Z,99509.19
2022-10-28T03:48:11.356Z,99532.25
2022-10-28T03:50:37.855Z,99522.53
2022-10-28T03:53:04.562Z,99520.78
2022-10-28T03:55:31.107Z,99516.47
2022-10-28T03:58:00.786Z,99529.72
2022-10-28T04:00:27.624Z,99535.97
2022-10-28T04:02:54.497Z,99530.75
2022-10-28T04:05:21.790Z,99514.84
2022-10-28T04:07:48.511Z,99505.22
2022-10-28T04:10:15.025Z,99532.53
2022-10-28T04:12:41.588Z,99526.41
2022-10-28T04:15:08.410Z,99517.69
2022-10-28T04:17:35.223Z,99497.06
2022-10-28T04:20:01.784Z,99522.16
2022-10-28T04:22:28.481Z,99517.13
2022-10-28T04:24:55.040Z,99530.09
2022-10-28T04:27:22.047Z,99516.91
2022-10-28T04:29:48.657Z,99496.78
2022-10-28T04:32:15.231Z,99503.66
2022-10-28T04:34:41.772Z,99504.66
2022-10-28T04:37:08.353Z,99511.72
2022-10-28T04:40:57.877Z,99507.38
2022-10-28T04:43:24.529Z,99512.66
2022-10-28T04:45:51.033Z,99492.50
2022-10-28T04:48:17.675Z,99502.28
2022-10-28T04:50:44.506Z,99496.59
2022-10-28T04:53:11.739Z,99495.28
2022-10-28T04:55:38.344Z,99497.91
2022-10-28T04:58:05.392Z,99477.28
2022-10-28T05:00:32.141Z,99478.81
2022-10-28T05:03:02.823Z,99494.50
2022-10-28T05:05:29.866Z,99502.44
2022-10-28T05:07:56.945Z,99483.75
2022-10-28T05:10:23.870Z,99509.56
2022-10-28T05:12:50.527Z,99510.50
2022-10-28T05:15:19.519Z,99505.22
2022-10-28T05:17:47.403Z,99500.97
2022-10-28T05:20:16.284Z,99486.84
2022-10-28T05:22:47.992Z,99483.34
2022-10-28T05:25:14.994Z,99480.59
2022-10-28T05:27:41.911Z,99476.34
2022-10-28T05:30:09.666Z,99485.16
2022-10-28T05:32:36.364Z,99481.66
2022-10-28T05:35:03.808Z,99491.41
2022-10-28T05:37:30.385Z,99456.97
2022-10-28T05:39:56.992Z,99483.47
2022-10-28T05:42:23.680Z,99486.00
2022-10-28T05:44:50.296Z,99483.19
2022-10-28T05:47:16.775Z,99497.25
2022-10-28T05:49:43.396Z,99485.06
2022-10-28T05:52:09.895Z,99486.84
2022-10-28T05:54:36.537Z,99485.34
2022-10-28T05:57:03.152Z,99479.00
2022-10-28T05:59:29.700Z,99480.59
2022-10-28T06:01:56.248Z,99473.53
2022-10-28T06:04:22.981Z,99482.31
2022-10-28T06:06:49.469Z,99491.03
2022-10-28T06:09:16.013Z,99481.25
2022-10-28T06:11:41.069Z,99482.19
2022-10-28T06:14:07.691Z,99484.00
2022-10-28T06:16:34.195Z,99484.97
2022-10-28T06:19:00.843Z,99488.53
2022-10-28T06:21:27.356Z,99480.69
2022-10-28T06:23:54.004Z,99493.94
2022-10-28T06:26:20.530Z,99482.59
2022-10-28T06:28:47.187Z,99494.06
2022-10-28T06:31:13.826Z,99504.44
2022-10-28T06:33:40.590Z,99502.56
2022-10-28T06:36:07.601Z,99495.38
2022-10-28T06:38:34.151Z,99492.63
2022-10-28T06:41:01.022Z,99501.34
2022-10-28T06:43:27.664Z,99503.00
2022-10-28T06:45:55.806Z,99495.94
2022-10-28T06:48:24.558Z,99496.78
2022-10-28T06:50:51.155Z,99501.22
2022-10-28T06:55:37.138Z,99493.41
2022-10-28T06:58:04.089Z,99474.75
2022-10-28T07:00:33.298Z,99498.78
2022-10-28T07:03:00.532Z,99504.09
2022-10-28T07:05:28.110Z,99506.75
2022-10-28T07:07:55.485Z,99506.63
2022-10-28T07:10:22.505Z,99509.19
2022-10-28T07:12:49.076Z,99502.84
2022-10-28T07:15:15.934Z,99509.00
2022-10-28T07:17:42.691Z,99507.97
2022-10-28T07:20:09.867Z,99518.34
2022-10-28T07:22:36.503Z,99512.09
2022-10-28T07:25:03.171Z,99510.22
2022-10-28T07:27:29.703Z,99511.84
2022-10-28T07:29:56.204Z,99515.31
2022-10-28T07:32:22.895Z,99518.84
2022-10-28T07:34:49.482Z,99517.78
2022-10-28T07:37:16.098Z,99521.09
2022-10-28T07:39:42.840Z,99521.09
2022-10-28T07:42:09.577Z,99508.97
2022-10-28T07:44:36.138Z,99510.19
2022-10-28T07:47:02.781Z,99515.34
2022-10-28T07:49:29.367Z,99517.81
2022-10-28T07:51:56.294Z,99510.59
2022-10-28T07:54:23.093Z,99508.69
2022-10-28T07:56:50.025Z,99522.63
2022-10-28T07:59:16.615Z,99521.56
2022-10-28T08:01:43.357Z,99516.81
2022-10-28T08:04:10.065Z,99515.66
2022-10-28T08:06:36.778Z,99516.97
2022-10-28T08:09:03.857Z,99514.88
2022-10-28T08:11:30.680Z,99514.69
2022-10-28T08:13:59.924Z,99510.03
2022-10-28T08:16:29.037Z,99503.66
2022-10-28T08:18:56.782Z,99500.06
2022-10-28T08:21:24.379Z,99498.25
2022-10-28T08:23:51.267Z,99495.53
2022-10-28T08:26:17.819Z,99508.97
2022-10-28T08:28:44.357Z,99506.53
2022-10-28T08:31:12.485Z,99493.03
2022-10-28T08:33:46.901Z,99497.94
2022-10-28T08:36:15.550Z,99494.31
2022-10-28T08:38:46.761Z,99470.50
2022-10-28T08:43:56.717Z,99491.47
2022-10-28T08:46:51.895Z,99489.34
2022-10-28T08:49:21.915Z,99491.06
2022-10-28T08:51:52.838Z,99483.94
2022-10-28T08:54:24.446Z,99476.84
2022-10-28T08:56:54.896Z,99483.00
2022-10-28T08:59:28.047Z,99483.00
2022-10-28T09:02:01.199Z,99481.22
2022-10-28T09:04:45.660Z,99479.41
2022-10-28T09:07:22.853Z,99482.06
2022-10-28T09:09:51.285Z,99457.16
2022-10-28T09:12:42.594Z,99482.06
2022-10-28T09:15:33.545Z,99483.88
2022-10-28T09:18:12.118Z,99478.56
2022-10-28T09:21:00.355Z,99482.06
2022-10-28T09:23:37.390Z,99488.19
2022-10-28T09:26:16.303Z,99484.69
2022-10-28T09:28:54.948Z,99474.84
2022-10-28T09:31:28.943Z,99475.38
2022-10-28T09:34:23.516Z,99480.47
2022-10-28T09:36:58.587Z,99476.69
2022-10-28T09:39:29.667Z,99475.75
2022-10-28T09:42:01.445Z,99486.94
2022-10-28T09:44:41.626Z,99476.19
2022-10-28T09:49:37.558Z,99464.75
2022-10-28T09:52:39.467Z,99474.09
2022-10-28T09:55:20.187Z,99469.72
2022-10-28T09:57:46.799Z,99471.53
2022-10-28T10:00:14.994Z,99465.41
2022-10-28T10:02:42.792Z,99437.94
2022-10-28T10:05:17.173Z,99467.00
2022-10-28T10:07:56.767Z,99465.81
2022-10-28T10:10:31.563Z,99464.00
2022-10-28T10:13:02.744Z,99465.72
2022-10-28T10:15:41.006Z,99472.59
2022-10-28T10:18:15.630Z,99473.59
2022-10-28T10:24:26.481Z,99458.97
2022-10-28T10:26:54.207Z,99461.59
2022-10-28T10:29:22.103Z,99462.25
2022-10-28T10:31:54.461Z,99458.56
2022-10-28T10:34:25.142Z,99452.97
2022-10-28T10:36:55.739Z,99449.25
2022-10-28T10:39:42.605Z,99448.94
2022-10-28T10:42:20.360Z,99449.59
2022-10-28T10:44:56.410Z,99440.56
2022-10-28T10:47:23.177Z,99426.66
2022-10-28T10:49:51.902Z,99438.44
2022-10-28T10:52:22.870Z,99444.41
2022-10-28T10:55:05.195Z,99441.63
2022-10-28T10:57:33.579Z,99444.09
2022-10-28T11:00:00.709Z,99441.31
2022-10-28T11:02:37.060Z,99436.75
2022-10-28T11:05:08.390Z,99445.44
2022-10-28T11:07:38.035Z,99429.09
2022-10-28T11:10:05.255Z,99436.34
2022-10-28T11:12:35.525Z,99439.72
2022-10-28T11:15:21.459Z,99435.28
2022-10-28T11:18:09.539Z,99442.28
2022-10-28T11:21:07.278Z,99431.66
2022-10-28T11:23:58.612Z,99397.25
2022-10-28T11:26:25.914Z,99398.19
2022-10-28T11:29:11.114Z,99425.41
2022-10-28T11:34:12.911Z,99413.59
2022-10-28T11:37:05.251Z,99415.50
2022-10-28T11:39:43.142Z,99404.56
2022-10-28T11:42:39.715Z,99417.22
2022-10-28T11:45:14.676Z,99419.66
2022-10-28T11:48:06.007Z,99416.91
2022-10-28T11:53:21.192Z,99421.16
2022-10-28T11:56:02.220Z,99417.53
2022-10-28T11:58:52.431Z,99411.16
2022-10-28T12:01:55.825Z,99406.47
2022-10-28T12:04:22.810Z,99402.75
2022-10-28T12:07:01.460Z,99404.34
2022-10-28T12:09:37.223Z,99394.38
2022-10-28T12:12:17.509Z,99396.94
2022-10-28T12:14:57.005Z,99390.78
2022-10-28T12:17:44.031Z,99390.78
2022-10-28T12:20:52.775Z,99391.63
2022-10-28T12:23:22.168Z,99371.72
2022-10-28T12:25:54.835Z,99371.97
2022-10-28T12:28:32.588Z,99384.41
2022-10-28T12:31:00.618Z,99383.53
2022-10-28T12:33:39.310Z,99378.22
2022-10-28T12:36:08.746Z,99379.06
2022-10-28T12:38:59.916Z,99380.78
2022-10-28T12:41:32.078Z,99371.81
2022-10-28T12:44:05.194Z,99366.44
2022-10-28T12:46:34.455Z,99361.13
2022-10-28T12:49:14.442Z,99366.31
2022-10-28T12:51:41.940Z,99365.34
2022-10-28T12:54:27.507Z,99372.38
2022-10-28T12:57:02.819Z,99361.75
2022-10-28T12:59:37.022Z,99351.31
2022-10-28T13:02:05.639Z,99360.69
2022-10-28T13:04:32.500Z,99357.16
2022-10-28T13:07:11.095Z,99362.47
2022-10-28T13:09:39.187Z,99359.72
2022-10-28T13:12:09.094Z,99357.06
2022-10-28T13:14:50.719Z,99357.06
2022-10-28T13:17:36.211Z,99353.41
2022-10-28T13:20:27.802Z,99360.56
2022-10-28T13:23:15.551Z,99356.31
2022-10-28T13:26:11.892Z,99330.28
2022-10-28T13:28:51.575Z,99334.44
2022-10-28T13:31:19.889Z,99356.13
2022-10-28T13:34:19.211Z,99355.38
2022-10-28T13:36:56.550Z,99354.63
2022-10-28T13:39:40.618Z,99356.41
2022-10-28T13:42:13.360Z,99348.56
2022-10-28T13:44:55.627Z,99352.16
2022-10-28T13:47:34.347Z,99350.47
2022-10-28T13:50:06.834Z,99354.00
2022-10-28T13:52:33.956Z,99337.63
2022-10-28T13:55:21.558Z,99338.38
2022-10-28T13:57:51.979Z,99343.13
2022-10-28T14:00:18.758Z,99348.28
2022-10-28T14:02:55.575Z,99343.78
2022-10-28T14:05:45.764Z,99345.72
2022-10-28T14:08:29.495Z,99349.09
2022-10-28T14:11:05.287Z,99347.41
2022-10-28T14:13:50.634Z,99342.97
2022-10-28T14:16:29.947Z,99349.84
2022-10-28T14:19:01.286Z,99345.38
2022-10-28T14:21:51.020Z,99338.28
2022-10-28T14:24:37.639Z,99337.41
2022-10-28T14:27:12.162Z,99336.47
2022-10-28T14:30:12.542Z,99350.38
2022-10-28T14:32:41.706Z,99333.47
2022-10-28T14:35:12.827Z,99330.69
2022-10-28T14:38:16.810Z,99334.22
2022-10-28T14:40:46.389Z,99325.38
2022-10-28T14:43:30.390Z,99330.69
2022-10-28T14:46:24.702Z,99327.22
2022-10-28T14:48:53.451Z,99328.91
2022-10-28T14:51:24.579Z,99327.09
2022-10-28T14:53:57.306Z,99327.94
2022-10-28T14:56:31.084Z,99311.81
2022-10-28T14:59:02.867Z,99325.25
2022-10-28T15:01:49.196Z,99326.97
2022-10-28T15:04:16.431Z,99324.19
2022-10-28T15:09:20.871Z,99330.38
2022-10-28T15:11:52.223Z,99322.41
2022-10-28T15:14:25.040Z,99322.41
2022-10-28T15:16:52.464Z,99323.25
2022-10-28T15:19:27.547Z,99304.47
2022-10-28T15:22:33.519Z,99321.44
2022-10-28T15:25:02.654Z,99318.78
2022-10-28T15:27:31.996Z,99321.31
2022-10-28T15:32:21.815Z,99320.88
2022-10-28T15:34:49.117Z,99323.22
2022-10-28T15:38:08.585Z,99327.56
2022-10-28T15:40:35.716Z,99320.31
2022-10-28T15:43:07.417Z,99319.47
2022-10-28T15:45:42.197Z,99318.41
2022-10-28T15:48:14.402Z,99280.34
2022-10-28T15:50:41.836Z,99323.72
2022-10-28T15:53:11.619Z,99322.00
2022-10-28T15:56:06.831Z,99320.31
2022-10-28T15:58:39.711Z,99318.59
2022-10-28T16:01:10.783Z,99322.25
2022-10-28T16:03:41.695Z,99313.53
2022-10-28T16:06:33.574Z,99317.16
2022-10-28T16:09:06.218Z,99322.47
2022-10-28T16:11:36.452Z,99325.94
2022-10-28T16:14:14.654Z,99315.69
2022-10-28T16:16:41.341Z,99319.94
2022-10-28T16:19:14.859Z,99324.63
2022-10-28T16:21:41.478Z,99325.25
2022-10-28T16:24:10.514Z,99303.06
2022-10-28T16:26:37.395Z,99326.06
2022-10-28T16:29:04.722Z,99325.94
2022-10-28T16:31:31.761Z,99336.69
2022-10-28T16:33:59.539Z,99327.91
2022-10-28T16:38:40.877Z,99331.38
2022-10-28T16:41:15.522Z,99327.91
2022-10-28T16:43:47.635Z,99335.00
2022-10-28T16:46:14.399Z,99336.00
2022-10-28T16:48:41.337Z,99328.84
2022-10-28T16:51:17.939Z,99330.56
2022-10-28T16:53:47.325Z,99333.34
2022-10-28T16:56:18.063Z,99333.41
2022-10-28T16:58:44.817Z,99329.06
2022-10-28T17:01:12.107Z,99302.66
2022-10-28T17:03:39.063Z,99325.06
2022-10-28T17:06:05.851Z,99320.81
2022-10-28T17:09:00.712Z,99276.28
2022-10-28T17:11:19.283Z,99331.22
2022-10-28T17:13:45.922Z,99324.19
2022-10-28T17:16:12.906Z,99324.19
2022-10-28T17:18:40.138Z,99326.25
2022-10-28T17:21:06.778Z,99332.28
2022-10-28T17:23:33.303Z,99327.94
2022-10-28T17:26:01.689Z,99334.22
2022-10-28T17:28:28.463Z,99336.88
2022-10-28T17:31:07.808Z,99328.16
2022-10-28T17:33:35.189Z,99329.94
2022-10-28T17:36:06.289Z,99328.38
2022-10-28T17:38:33.640Z,99331.25
2022-10-28T17:41:03.277Z,99325.09
2022-10-28T17:43:29.833Z,99324.25
2022-10-28T17:46:04.574Z,99329.69
2022-10-28T17:48:31.306Z,99331.47
2022-10-28T17:50:57.801Z,99328.94
2022-10-28T17:53:24.399Z,99320.41
2022-10-28T17:56:01.447Z,99316.06
2022-10-28T17:58:28.887Z,99330.81
2022-10-28T18:01:04.173Z,99323.81
2022-10-28T18:03:34.107Z,99322.97
2022-10-28T18:06:10.214Z,99325.63
2022-10-28T18:08:42.400Z,99327.44
2022-10-28T18:11:11.929Z,99323.81
2022-10-28T18:13:40.802Z,99321.16
2022-10-28T18:16:13.615Z,99315.00
2022-10-28T18:18:42.553Z,99235.88
2022-10-28T18:21:10.600Z,99316.91
2022-10-28T18:23:37.313Z,99307.25
2022-10-28T18:26:09.122Z,99279.78
2022-10-28T18:28:36.744Z,99285.91
2022-10-28T18:31:09.482Z,99305.44
2022-10-28T18:33:36.245Z,99312.56
2022-10-28T18:36:10.265Z,99306.38
2022-10-28T18:38:36.903Z,99297.47
2022-10-28T18:41:03.629Z,99307.13
2022-10-28T18:43:30.319Z,99302.97
2022-10-28T18:46:03.181Z,99298.22
2022-10-28T18:48:31.068Z,99295.56
2022-10-28T18:50:59.234Z,99300.00
2022-10-28T18:53:26.102Z,99305.13
2022-10-28T18:55:53.108Z,99300.47
2022-10-28T18:58:19.752Z,99298.31
2022-10-28T19:00:46.356Z,99296.50
2022-10-28T19:03:23.741Z,99298.06
2022-10-28T19:05:50.335Z,99299.06
2022-10-28T19:08:16.844Z,99298.44
2022-10-28T19:10:43.496Z,99294.50
2022-10-28T19:13:10.026Z,99294.59
2022-10-28T19:15:42.385Z,99301.06
2022-10-28T19:18:09.014Z,99299.50
2022-10-28T19:20:35.514Z,99301.41
2022-10-28T19:23:04.784Z,99294.31
2022-10-28T19:25:31.448Z,99296.22
2022-10-28T19:27:59.493Z,99304.06
2022-10-28T19:30:26.507Z,99299.63
2022-10-28T19:32:53.583Z,99308.31
2022-10-28T19:35:23.358Z,99303.84
2022-10-28T19:37:52.855Z,99304.59
2022-10-28T19:40:19.688Z,99303.28
2022-10-28T19:42:46.486Z,99307.34
2022-10-28T19:45:13.282Z,99304.38
2022-10-28T19:47:39.989Z,99309.31
2022-10-28T19:50:07.175Z,99284.69
2022-10-28T19:52:33.772Z,99321.97
2022-10-28T19:55:00.510Z,99320.75
2022-10-28T19:57:27.074Z,99328.41
2022-10-28T19:59:53.669Z,99322.00
2022-10-28T20:02:23.653Z,99324.34
2022-10-28T20:04:54.817Z,99319.78
2022-10-28T20:07:23.591Z,99324.00
2022-10-28T20:09:50.621Z,99318.56
2022-10-28T20:12:17.810Z,99316.13
2022-10-28T20:14:45.454Z,99312.16
2022-10-28T20:17:13.908Z,99316.66
2022-10-28T20:19:40.823Z,99315.03
2022-10-28T20:22:08.812Z,99312.75
2022-10-28T20:24:35.817Z,99318.69
2022-10-28T20:27:02.521Z,99321.44
2022-10-28T20:29:29.151Z,99317.31
2022-10-28T20:31:55.762Z,99320.81
2022-10-28T20:34:22.320Z,99329.88
2022-10-28T20:36:49.274Z,99328.28
2022-10-28T20:39:17.979Z,99322.25
2022-10-28T20:41:49.244Z,99322.34
2022-10-28T20:44:16.101Z,99325.94
2022-10-28T20:46:44.890Z,99320.75
2022-10-28T20:49:13.140Z,99320.75
2022-10-28T20:51:39.853Z,99326.06
2022-10-28T20:54:06.714Z,99323.75
2022-10-28T20:56:36.551Z,99319.41
2022-10-28T20:59:05.548Z,99322.06
2022-10-28T21:01:35.161Z,99318.22
2022-10-28T21:04:04.983Z,99314.50
2022-10-28T21:06:31.858Z,99319.81
2022-10-28T21:08:59.083Z,99314.63
2022-10-28T21:11:27.615Z,99312.28
2022-10-28T21:13:57.024Z,99295.66
2022-10-28T21:16:24.599Z,99311.78
2022-10-28T21:18:51.759Z,99248.34
2022-10-28T21:21:19.756Z,99311.34
2022-10-28T21:23:46.338Z,99302.75
2022-10-28T21:26:13.387Z,99307.97
2022-10-28T21:28:41.443Z,99303.63
2022-10-28T21:31:16.284Z,99305.53
2022-10-28T21:33:43.771Z,99306.41
2022-10-28T21:36:13.753Z,99257.78
2022-10-28T21:38:40.743Z,99303.00
2022-10-28T21:41:10.942Z,99295.16
2022-10-28T21:43:39.852Z,99298.75
2022-10-28T21:46:07.314Z,99300.56
2022-10-28T21:48:35.524Z,99297.97
2022-10-28T21:51:06.325Z,99292.78
2022-10-28T21:53:38.173Z,99293.00
2022-10-28T21:56:05.934Z,99295.78
2022-10-28T21:58:35.146Z,99291.41
2022-10-28T22:01:08.067Z,99270.34
2022-10-28T22:03:34.835Z,99287.91
2022-10-28T22:06:02.506Z,99296.84
2022-10-28T22:08:29.364Z,99286.34
2022-10-28T22:11:16.204Z,99264.41
2022-10-28T22:13:42.911Z,99282.19
2022-10-28T22:16:14.961Z,99254.72
2022-10-28T22:18:41.666Z,99276.03
2022-10-28T22:21:22.940Z,99259.81
2022-10-28T22:23:50.014Z,99279.78
2022-10-28T22:26:20.396Z,99250.56
2022-10-28T22:28:47.892Z,99264.91
2022-10-28T22:31:17.694Z,99278.19
2022-10-28T22:36:20.721Z,99265.03
2022-10-28T22:38:48.039Z,99247.09
2022-10-28T22:41:19.820Z,99252.63
2022-10-28T22:43:49.773Z,99274.91
2022-10-28T22:46:18.106Z,99256.25
2022-10-28T22:48:45.571Z,99255.88
2022-10-28T22:51:12.367Z,99260.88
2022-10-28T22:53:40.115Z,99241.03
2022-10-28T22:56:08.148Z,99250.38
2022-10-28T22:58:35.068Z,99251.31
2022-10-28T23:01:06.765Z,99255.88
2022-10-28T23:03:38.745Z,99257.72
2022-10-28T23:06:05.675Z,99261.31
2022-10-28T23:08:32.807Z,99262.19
2022-10-28T23:11:00.114Z,99254.31
2022-10-28T23:13:27.107Z,99233.13
2022-10-28T23:15:54.345Z,99251.78
2022-10-28T23:18:21.744Z,99250.06
2022-10-28T23:23:12.566Z,99242.97
2022-10-28T23:25:40.612Z,99238.94
2022-10-28T23:28:07.368Z,99247.53
2022-10-28T23:30:34.074Z,99244.03
2022-10-28T23:33:00.830Z,99239.69
2022-10-28T23:35:27.388Z,99250.41
2022-10-28T23:37:54.152Z,99230.03
2022-10-28T23:40:20.995Z,99237.16
2022-10-28T23:42:47.480Z,99242.53
2022-10-28T23:45:14.156Z,99240.75
2022-10-28T23:47:40.674Z,99246.16
2022-10-28T23:50:10.825Z,99241.81
2022-10-28T23:52:37.695Z,99241.81
2022-10-28T23:55:04.647Z,99233.88
2022-10-28T23:57:31.194Z,99228.56
2022-10-28T23:59:57.747Z,99223.34
